sensor_id;sensor_type;location;lat;lon;timestamp;P1;durP1;ratioP1;P2;durP2;ratioP2
11247;SDS011;5681;53.316;13.950;2023-07-29T00:01:24;2.40;;;2.20;;
11247;SDS011;5681;53.316;13.950;2023-07-29T00:03:51;5.57;;;2.30;;
11247;SDS011;5681;53.316;13.950;2023-07-29T00:06:17;5.68;;;2.10;;
11247;SDS011;5681;53.316;13.950;2023-07-29T00:08:43;7.78;;;2.38;;
11247;SDS011;5681;53.316;13.950;2023-07-29T00:11:10;2.70;;;2.38;;
11247;SDS011;5681;53.316;13.950;2023-07-29T00:13:38;4.28;;;2.33;;
11247;SDS011;5681;53.316;13.950;2023-07-29T00:16:04;6.15;;;2.50;;
11247;SDS011;5681;53.316;13.950;2023-07-29T00:18:31;2.60;;;2.40;;
11247;SDS011;5681;53.316;13.950;2023-07-29T00:20:57;4.57;;;2.78;;
11247;SDS011;5681;53.316;13.950;2023-07-29T00:23:24;5.07;;;2.50;;
11247;SDS011;5681;53.316;13.950;2023-07-29T00:25:50;3.42;;;3.00;;
11247;SDS011;5681;53.316;13.950;2023-07-29T00:28:16;3.15;;;2.72;;
11247;SDS011;5681;53.316;13.950;2023-07-29T00:30:44;4.28;;;2.67;;
11247;SDS011;5681;53.316;13.950;2023-07-29T00:33:10;4.32;;;3.30;;
11247;SDS011;5681;53.316;13.950;2023-07-29T00:35:37;2.67;;;2.47;;
11247;SDS011;5681;53.316;13.950;2023-07-29T00:38:03;3.08;;;2.83;;
11247;SDS011;5681;53.316;13.950;2023-07-29T00:40:29;6.35;;;3.15;;
11247;SDS011;5681;53.316;13.950;2023-07-29T00:42:57;3.92;;;2.83;;
11247;SDS011;5681;53.316;13.950;2023-07-29T00:45:23;2.80;;;2.60;;
11247;SDS011;5681;53.316;13.950;2023-07-29T00:47:52;3.10;;;2.90;;
11247;SDS011;5681;53.316;13.950;2023-07-29T00:50:19;3.25;;;2.95;;
11247;SDS011;5681;53.316;13.950;2023-07-29T00:52:46;5.50;;;2.90;;
11247;SDS011;5681;53.316;13.950;2023-07-29T00:55:12;4.03;;;3.05;;
11247;SDS011;5681;53.316;13.950;2023-07-29T00:57:38;2.95;;;2.63;;
11247;SDS011;5681;53.316;13.950;2023-07-29T01:00:05;4.30;;;3.00;;
11247;SDS011;5681;53.316;13.950;2023-07-29T01:02:33;3.00;;;2.80;;
11247;SDS011;5681;53.316;13.950;2023-07-29T01:05:01;3.53;;;2.63;;
11247;SDS011;5681;53.316;13.950;2023-07-29T01:07:30;6.45;;;3.05;;
11247;SDS011;5681;53.316;13.950;2023-07-29T01:10:00;3.08;;;2.80;;
11247;SDS011;5681;53.316;13.950;2023-07-29T01:12:30;5.40;;;2.65;;
11247;SDS011;5681;53.316;13.950;2023-07-29T01:15:04;3.22;;;2.60;;
11247;SDS011;5681;53.316;13.950;2023-07-29T01:17:39;3.70;;;2.60;;
11247;SDS011;5681;53.316;13.950;2023-07-29T01:20:11;3.63;;;2.90;;
11247;SDS011;5681;53.316;13.950;2023-07-29T01:22:39;3.33;;;3.13;;
11247;SDS011;5681;53.316;13.950;2023-07-29T01:25:07;3.50;;;3.20;;
11247;SDS011;5681;53.316;13.950;2023-07-29T01:27:34;3.85;;;3.55;;
11247;SDS011;5681;53.316;13.950;2023-07-29T01:30:00;7.10;;;3.05;;
11247;SDS011;5681;53.316;13.950;2023-07-29T01:32:28;4.32;;;3.13;;
11247;SDS011;5681;53.316;13.950;2023-07-29T01:34:57;3.03;;;2.70;;
11247;SDS011;5681;53.316;13.950;2023-07-29T01:37:26;4.80;;;3.10;;
11247;SDS011;5681;53.316;13.950;2023-07-29T01:39:54;4.10;;;3.25;;
11247;SDS011;5681;53.316;13.950;2023-07-29T01:42:24;4.43;;;3.65;;
11247;SDS011;5681;53.316;13.950;2023-07-29T01:44:51;4.22;;;3.92;;
11247;SDS011;5681;53.316;13.950;2023-07-29T01:47:17;7.00;;;3.95;;
11247;SDS011;5681;53.316;13.950;2023-07-29T01:49:43;6.78;;;4.13;;
11247;SDS011;5681;53.316;13.950;2023-07-29T01:52:10;8.93;;;4.10;;
11247;SDS011;5681;53.316;13.950;2023-07-29T01:54:36;4.70;;;3.75;;
11247;SDS011;5681;53.316;13.950;2023-07-29T01:57:03;7.47;;;3.97;;
11247;SDS011;5681;53.316;13.950;2023-07-29T01:59:30;4.38;;;3.67;;
11247;SDS011;5681;53.316;13.950;2023-07-29T02:01:57;4.40;;;4.00;;
11247;SDS011;5681;53.316;13.950;2023-07-29T02:04:23;4.10;;;3.80;;
11247;SDS011;5681;53.316;13.950;2023-07-29T02:06:49;7.00;;;4.30;;
11247;SDS011;5681;53.316;13.950;2023-07-29T02:09:16;7.93;;;4.43;;
11247;SDS011;5681;53.316;13.950;2023-07-29T02:11:42;5.90;;;4.65;;
11247;SDS011;5681;53.316;13.950;2023-07-29T02:14:09;7.70;;;4.80;;
11247;SDS011;5681;53.316;13.950;2023-07-29T02:16:36;7.10;;;3.95;;
11247;SDS011;5681;53.316;13.950;2023-07-29T02:19:04;4.40;;;3.97;;
11247;SDS011;5681;53.316;13.950;2023-07-29T02:21:30;7.45;;;4.78;;
11247;SDS011;5681;53.316;13.950;2023-07-29T02:23:56;6.75;;;4.25;;
11247;SDS011;5681;53.316;13.950;2023-07-29T02:26:23;9.30;;;4.93;;
11247;SDS011;5681;53.316;13.950;2023-07-29T02:28:49;7.97;;;4.10;;
11247;SDS011;5681;53.316;13.950;2023-07-29T02:31:16;6.00;;;4.90;;
11247;SDS011;5681;53.316;13.950;2023-07-29T02:33:44;7.97;;;4.95;;
11247;SDS011;5681;53.316;13.950;2023-07-29T02:36:11;9.10;;;4.68;;
11247;SDS011;5681;53.316;13.950;2023-07-29T02:38:38;5.45;;;4.93;;
11247;SDS011;5681;53.316;13.950;2023-07-29T02:41:05;10.75;;;4.90;;
11247;SDS011;5681;53.316;13.950;2023-07-29T02:43:31;6.82;;;4.95;;
11247;SDS011;5681;53.316;13.950;2023-07-29T02:45:57;7.63;;;5.30;;
11247;SDS011;5681;53.316;13.950;2023-07-29T02:48:24;6.88;;;4.72;;
11247;SDS011;5681;53.316;13.950;2023-07-29T02:50:52;11.55;;;5.45;;
11247;SDS011;5681;53.316;13.950;2023-07-29T02:53:18;10.13;;;5.22;;
11247;SDS011;5681;53.316;13.950;2023-07-29T02:55:45;6.93;;;4.63;;
11247;SDS011;5681;53.316;13.950;2023-07-29T02:58:11;5.57;;;4.82;;
11247;SDS011;5681;53.316;13.950;2023-07-29T03:00:38;7.07;;;4.60;;
11247;SDS011;5681;53.316;13.950;2023-07-29T03:03:06;6.05;;;4.97;;
11247;SDS011;5681;53.316;13.950;2023-07-29T03:05:33;8.38;;;4.90;;
11247;SDS011;5681;53.316;13.950;2023-07-29T03:08:00;5.43;;;4.85;;
11247;SDS011;5681;53.316;13.950;2023-07-29T03:10:27;9.18;;;4.72;;
11247;SDS011;5681;53.316;13.950;2023-07-29T03:12:53;12.68;;;5.60;;
11247;SDS011;5681;53.316;13.950;2023-07-29T03:15:22;8.23;;;5.00;;
11247;SDS011;5681;53.316;13.950;2023-07-29T03:17:49;5.97;;;4.63;;
11247;SDS011;5681;53.316;13.950;2023-07-29T03:20:15;5.68;;;5.10;;
11247;SDS011;5681;53.316;13.950;2023-07-29T03:22:42;11.95;;;4.95;;
11247;SDS011;5681;53.316;13.950;2023-07-29T03:25:10;6.53;;;4.95;;
11247;SDS011;5681;53.316;13.950;2023-07-29T03:27:37;6.53;;;4.88;;
11247;SDS011;5681;53.316;13.950;2023-07-29T03:30:05;7.95;;;4.53;;
11247;SDS011;5681;53.316;13.950;2023-07-29T03:32:32;12.10;;;5.63;;
11247;SDS011;5681;53.316;13.950;2023-07-29T03:34:58;9.32;;;4.93;;
11247;SDS011;5681;53.316;13.950;2023-07-29T03:37:25;14.38;;;5.05;;
11247;SDS011;5681;53.316;13.950;2023-07-29T03:39:51;8.30;;;5.20;;
11247;SDS011;5681;53.316;13.950;2023-07-29T03:42:19;9.45;;;4.90;;
11247;SDS011;5681;53.316;13.950;2023-07-29T03:44:45;7.97;;;5.10;;
11247;SDS011;5681;53.316;13.950;2023-07-29T03:47:12;6.25;;;5.03;;
11247;SDS011;5681;53.316;13.950;2023-07-29T03:49:38;6.00;;;5.20;;
11247;SDS011;5681;53.316;13.950;2023-07-29T03:52:05;10.35;;;4.68;;
11247;SDS011;5681;53.316;13.950;2023-07-29T03:54:31;10.25;;;4.78;;
11247;SDS011;5681;53.316;13.950;2023-07-29T03:56:58;8.98;;;5.13;;
11247;SDS011;5681;53.316;13.950;2023-07-29T03:59:25;6.38;;;4.95;;
11247;SDS011;5681;53.316;13.950;2023-07-29T04:01:52;12.98;;;5.32;;
11247;SDS011;5681;53.316;13.950;2023-07-29T04:04:18;15.13;;;5.10;;
11247;SDS011;5681;53.316;13.950;2023-07-29T04:06:45;10.45;;;5.25;;
11247;SDS011;5681;53.316;13.950;2023-07-29T04:09:11;8.95;;;5.05;;
11247;SDS011;5681;53.316;13.950;2023-07-29T04:11:37;9.48;;;5.10;;
11247;SDS011;5681;53.316;13.950;2023-07-29T04:14:04;8.82;;;4.60;;
11247;SDS011;5681;53.316;13.950;2023-07-29T04:16:31;5.28;;;4.78;;
11247;SDS011;5681;53.316;13.950;2023-07-29T04:18:58;5.25;;;4.75;;
11247;SDS011;5681;53.316;13.950;2023-07-29T04:21:24;11.25;;;5.63;;
11247;SDS011;5681;53.316;13.950;2023-07-29T04:23:50;14.55;;;5.60;;
11247;SDS011;5681;53.316;13.950;2023-07-29T04:26:17;9.10;;;5.78;;
11247;SDS011;5681;53.316;13.950;2023-07-29T04:28:43;8.77;;;5.72;;
11247;SDS011;5681;53.316;13.950;2023-07-29T04:31:09;9.73;;;6.28;;
11247;SDS011;5681;53.316;13.950;2023-07-29T04:33:37;8.38;;;5.82;;
11247;SDS011;5681;53.316;13.950;2023-07-29T04:36:04;15.25;;;5.65;;
11247;SDS011;5681;53.316;13.950;2023-07-29T04:38:31;9.05;;;5.85;;
11247;SDS011;5681;53.316;13.950;2023-07-29T04:40:58;8.43;;;5.50;;
11247;SDS011;5681;53.316;13.950;2023-07-29T04:43:26;16.60;;;5.40;;
11247;SDS011;5681;53.316;13.950;2023-07-29T04:45:53;10.48;;;5.78;;
11247;SDS011;5681;53.316;13.950;2023-07-29T04:48:19;6.30;;;5.22;;
11247;SDS011;5681;53.316;13.950;2023-07-29T04:50:47;7.00;;;5.47;;
11247;SDS011;5681;53.316;13.950;2023-07-29T04:53:13;6.82;;;5.65;;
11247;SDS011;5681;53.316;13.950;2023-07-29T04:55:41;11.20;;;6.38;;
11247;SDS011;5681;53.316;13.950;2023-07-29T04:58:07;8.95;;;6.13;;
11247;SDS011;5681;53.316;13.950;2023-07-29T05:00:33;8.65;;;5.80;;
11247;SDS011;5681;53.316;13.950;2023-07-29T05:03:00;9.82;;;5.85;;
11247;SDS011;5681;53.316;13.950;2023-07-29T05:05:27;14.88;;;5.75;;
11247;SDS011;5681;53.316;13.950;2023-07-29T05:07:54;8.10;;;5.93;;
11247;SDS011;5681;53.316;13.950;2023-07-29T05:10:21;9.32;;;5.82;;
11247;SDS011;5681;53.316;13.950;2023-07-29T05:12:47;9.23;;;5.68;;
11247;SDS011;5681;53.316;13.950;2023-07-29T05:15:13;6.80;;;5.65;;
11247;SDS011;5681;53.316;13.950;2023-07-29T05:17:40;7.18;;;5.82;;
11247;SDS011;5681;53.316;13.950;2023-07-29T05:20:07;6.82;;;6.22;;
11247;SDS011;5681;53.316;13.950;2023-07-29T05:22:34;8.30;;;7.07;;
11247;SDS011;5681;53.316;13.950;2023-07-29T05:25:01;9.20;;;6.70;;
11247;SDS011;5681;53.316;13.950;2023-07-29T05:27:28;7.55;;;6.43;;
11247;SDS011;5681;53.316;13.950;2023-07-29T05:29:54;6.82;;;5.68;;
11247;SDS011;5681;53.316;13.950;2023-07-29T05:32:21;8.05;;;6.25;;
11247;SDS011;5681;53.316;13.950;2023-07-29T05:34:47;7.68;;;6.93;;
11247;SDS011;5681;53.316;13.950;2023-07-29T05:37:14;7.25;;;6.63;;
11247;SDS011;5681;53.316;13.950;2023-07-29T05:39:40;6.85;;;6.25;;
11247;SDS011;5681;53.316;13.950;2023-07-29T05:42:08;10.73;;;7.35;;
11247;SDS011;5681;53.316;13.950;2023-07-29T05:44:34;6.25;;;5.75;;
11247;SDS011;5681;53.316;13.950;2023-07-29T05:47:01;8.07;;;7.00;;
11247;SDS011;5681;53.316;13.950;2023-07-29T05:49:27;7.22;;;6.55;;
11247;SDS011;5681;53.316;13.950;2023-07-29T05:51:54;9.07;;;7.57;;
11247;SDS011;5681;53.316;13.950;2023-07-29T05:54:20;8.05;;;7.05;;
11247;SDS011;5681;53.316;13.950;2023-07-29T05:56:46;8.02;;;6.43;;
11247;SDS011;5681;53.316;13.950;2023-07-29T05:59:14;7.38;;;6.65;;
11247;SDS011;5681;53.316;13.950;2023-07-29T06:01:40;9.25;;;7.20;;
11247;SDS011;5681;53.316;13.950;2023-07-29T06:04:07;15.82;;;7.28;;
11247;SDS011;5681;53.316;13.950;2023-07-29T06:06:33;9.25;;;7.43;;
11247;SDS011;5681;53.316;13.950;2023-07-29T06:08:59;8.95;;;7.22;;
11247;SDS011;5681;53.316;13.950;2023-07-29T06:11:26;11.77;;;6.80;;
11247;SDS011;5681;53.316;13.950;2023-07-29T06:13:52;8.32;;;6.93;;
11247;SDS011;5681;53.316;13.950;2023-07-29T06:16:20;8.48;;;6.78;;
11247;SDS011;5681;53.316;13.950;2023-07-29T06:18:46;8.02;;;7.22;;
11247;SDS011;5681;53.316;13.950;2023-07-29T06:21:13;8.35;;;6.50;;
11247;SDS011;5681;53.316;13.950;2023-07-29T06:23:42;7.30;;;6.55;;
11247;SDS011;5681;53.316;13.950;2023-07-29T06:26:08;6.50;;;5.90;;
11247;SDS011;5681;53.316;13.950;2023-07-29T06:28:34;7.00;;;6.30;;
11247;SDS011;5681;53.316;13.950;2023-07-29T06:31:01;7.07;;;5.05;;
11247;SDS011;5681;53.316;13.950;2023-07-29T06:33:28;5.90;;;5.40;;
11247;SDS011;5681;53.316;13.950;2023-07-29T06:35:55;7.68;;;4.72;;
11247;SDS011;5681;53.316;13.950;2023-07-29T06:38:21;4.88;;;4.40;;
11247;SDS011;5681;53.316;13.950;2023-07-29T06:40:47;5.05;;;3.75;;
11247;SDS011;5681;53.316;13.950;2023-07-29T06:43:14;7.38;;;3.60;;
11247;SDS011;5681;53.316;13.950;2023-07-29T06:45:41;4.72;;;3.33;;
11247;SDS011;5681;53.316;13.950;2023-07-29T06:48:07;4.55;;;3.45;;
11247;SDS011;5681;53.316;13.950;2023-07-29T06:50:35;4.38;;;3.40;;
11247;SDS011;5681;53.316;13.950;2023-07-29T06:53:01;3.70;;;3.40;;
11247;SDS011;5681;53.316;13.950;2023-07-29T06:55:27;5.72;;;3.38;;
11247;SDS011;5681;53.316;13.950;2023-07-29T06:57:54;4.15;;;3.10;;
11247;SDS011;5681;53.316;13.950;2023-07-29T07:00:20;4.50;;;3.42;;
11247;SDS011;5681;53.316;13.950;2023-07-29T07:02:46;4.95;;;3.28;;
11247;SDS011;5681;53.316;13.950;2023-07-29T07:05:13;4.95;;;3.15;;
11247;SDS011;5681;53.316;13.950;2023-07-29T07:07:40;3.47;;;3.03;;
11247;SDS011;5681;53.316;13.950;2023-07-29T07:10:07;3.20;;;2.90;;
11247;SDS011;5681;53.316;13.950;2023-07-29T07:12:34;4.28;;;2.92;;
11247;SDS011;5681;53.316;13.950;2023-07-29T07:15:00;2.80;;;2.50;;
11247;SDS011;5681;53.316;13.950;2023-07-29T07:17:26;2.58;;;2.38;;
11247;SDS011;5681;53.316;13.950;2023-07-29T07:19:53;2.63;;;2.42;;
11247;SDS011;5681;53.316;13.950;2023-07-29T07:22:19;2.60;;;2.40;;
11247;SDS011;5681;53.316;13.950;2023-07-29T07:24:47;2.78;;;2.35;;
11247;SDS011;5681;53.316;13.950;2023-07-29T07:27:13;2.97;;;2.58;;
11247;SDS011;5681;53.316;13.950;2023-07-29T07:29:39;4.63;;;2.47;;
11247;SDS011;5681;53.316;13.950;2023-07-29T07:32:06;3.30;;;2.25;;
11247;SDS011;5681;53.316;13.950;2023-07-29T07:34:32;2.72;;;2.50;;
11247;SDS011;5681;53.316;13.950;2023-07-29T07:36:59;2.95;;;2.42;;
11247;SDS011;5681;53.316;13.950;2023-07-29T07:39:26;3.08;;;2.00;;
11247;SDS011;5681;53.316;13.950;2023-07-29T07:41:54;3.92;;;2.20;;
11247;SDS011;5681;53.316;13.950;2023-07-29T07:44:20;2.10;;;1.90;;
11247;SDS011;5681;53.316;13.950;2023-07-29T07:46:46;3.05;;;2.10;;
11247;SDS011;5681;53.316;13.950;2023-07-29T07:49:13;4.65;;;2.17;;
11247;SDS011;5681;53.316;13.950;2023-07-29T07:51:40;4.43;;;2.08;;
11247;SDS011;5681;53.316;13.950;2023-07-29T07:54:06;3.78;;;2.17;;
11247;SDS011;5681;53.316;13.950;2023-07-29T07:56:32;2.53;;;2.33;;
11247;SDS011;5681;53.316;13.950;2023-07-29T07:59:00;4.95;;;2.00;;
11247;SDS011;5681;53.316;13.950;2023-07-29T08:01:26;4.05;;;2.03;;
11247;SDS011;5681;53.316;13.950;2023-07-29T08:03:53;2.67;;;2.10;;
11247;SDS011;5681;53.316;13.950;2023-07-29T08:06:19;4.10;;;2.33;;
11247;SDS011;5681;53.316;13.950;2023-07-29T08:08:46;3.38;;;1.85;;
11247;SDS011;5681;53.316;13.950;2023-07-29T08:11:12;5.20;;;2.10;;
11247;SDS011;5681;53.316;13.950;2023-07-29T08:13:38;3.67;;;1.98;;
11247;SDS011;5681;53.316;13.950;2023-07-29T08:16:06;2.00;;;1.80;;
11247;SDS011;5681;53.316;13.950;2023-07-29T08:18:32;3.70;;;1.95;;
11247;SDS011;5681;53.316;13.950;2023-07-29T08:21:00;1.80;;;1.70;;
11247;SDS011;5681;53.316;13.950;2023-07-29T08:23:27;2.30;;;1.75;;
11247;SDS011;5681;53.316;13.950;2023-07-29T08:25:54;3.83;;;2.00;;
11247;SDS011;5681;53.316;13.950;2023-07-29T08:28:26;2.70;;;1.98;;
11247;SDS011;5681;53.316;13.950;2023-07-29T08:30:52;2.03;;;1.60;;
11247;SDS011;5681;53.316;13.950;2023-07-29T08:33:20;7.47;;;2.08;;
11247;SDS011;5681;53.316;13.950;2023-07-29T08:35:46;2.35;;;2.00;;
11247;SDS011;5681;53.316;13.950;2023-07-29T08:38:13;2.08;;;1.88;;
11247;SDS011;5681;53.316;13.950;2023-07-29T08:40:42;3.13;;;2.20;;
11247;SDS011;5681;53.316;13.950;2023-07-29T08:43:10;2.75;;;1.88;;
11247;SDS011;5681;53.316;13.950;2023-07-29T08:45:38;2.28;;;2.05;;
11247;SDS011;5681;53.316;13.950;2023-07-29T08:48:06;3.17;;;2.15;;
11247;SDS011;5681;53.316;13.950;2023-07-29T08:50:35;5.10;;;1.90;;
11247;SDS011;5681;53.316;13.950;2023-07-29T08:53:02;1.83;;;1.73;;
11247;SDS011;5681;53.316;13.950;2023-07-29T08:55:30;3.25;;;1.90;;
11247;SDS011;5681;53.316;13.950;2023-07-29T08:57:57;2.60;;;1.80;;
11247;SDS011;5681;53.316;13.950;2023-07-29T09:00:23;2.83;;;1.67;;
11247;SDS011;5681;53.316;13.950;2023-07-29T09:02:50;2.05;;;1.58;;
11247;SDS011;5681;53.316;13.950;2023-07-29T09:05:16;2.75;;;1.42;;
11247;SDS011;5681;53.316;13.950;2023-07-29T09:07:44;3.25;;;2.05;;
11247;SDS011;5681;53.316;13.950;2023-07-29T09:10:11;3.75;;;1.80;;
11247;SDS011;5681;53.316;13.950;2023-07-29T09:12:39;1.88;;;1.77;;
11247;SDS011;5681;53.316;13.950;2023-07-29T09:15:06;1.70;;;1.60;;
11247;SDS011;5681;53.316;13.950;2023-07-29T09:17:33;2.05;;;1.70;;
11247;SDS011;5681;53.316;13.950;2023-07-29T09:20:00;6.22;;;2.00;;
11247;SDS011;5681;53.316;13.950;2023-07-29T09:22:26;3.40;;;2.13;;
11247;SDS011;5681;53.316;13.950;2023-07-29T09:24:54;5.90;;;2.20;;
11247;SDS011;5681;53.316;13.950;2023-07-29T09:27:23;2.53;;;1.75;;
11247;SDS011;5681;53.316;13.950;2023-07-29T09:29:50;2.33;;;1.90;;
11247;SDS011;5681;53.316;13.950;2023-07-29T09:32:19;2.15;;;1.80;;
11247;SDS011;5681;53.316;13.950;2023-07-29T09:34:47;4.30;;;2.35;;
11247;SDS011;5681;53.316;13.950;2023-07-29T09:37:17;2.10;;;1.85;;
11247;SDS011;5681;53.316;13.950;2023-07-29T09:39:46;7.53;;;2.08;;
11247;SDS011;5681;53.316;13.950;2023-07-29T09:42:18;2.75;;;1.90;;
11247;SDS011;5681;53.316;13.950;2023-07-29T09:44:45;7.47;;;2.20;;
11247;SDS011;5681;53.316;13.950;2023-07-29T09:47:18;8.65;;;2.50;;
11247;SDS011;5681;53.316;13.950;2023-07-29T09:49:46;8.70;;;2.30;;
11247;SDS011;5681;53.316;13.950;2023-07-29T09:52:13;2.63;;;2.10;;
11247;SDS011;5681;53.316;13.950;2023-07-29T09:54:41;2.70;;;1.80;;
11247;SDS011;5681;53.316;13.950;2023-07-29T09:57:08;5.35;;;1.98;;
11247;SDS011;5681;53.316;13.950;2023-07-29T09:59:36;4.38;;;2.08;;
11247;SDS011;5681;53.316;13.950;2023-07-29T10:02:02;2.92;;;2.03;;
11247;SDS011;5681;53.316;13.950;2023-07-29T10:04:29;4.20;;;1.80;;
11247;SDS011;5681;53.316;13.950;2023-07-29T10:06:56;3.05;;;1.92;;
11247;SDS011;5681;53.316;13.950;2023-07-29T10:09:23;2.13;;;1.92;;
11247;SDS011;5681;53.316;13.950;2023-07-29T10:11:50;3.15;;;2.35;;
11247;SDS011;5681;53.316;13.950;2023-07-29T10:14:18;3.35;;;2.17;;
11247;SDS011;5681;53.316;13.950;2023-07-29T10:16:46;3.65;;;2.30;;
11247;SDS011;5681;53.316;13.950;2023-07-29T10:19:12;2.28;;;2.13;;
11247;SDS011;5681;53.316;13.950;2023-07-29T10:21:41;2.58;;;2.38;;
11247;SDS011;5681;53.316;13.950;2023-07-29T10:24:11;2.85;;;2.45;;
11247;SDS011;5681;53.316;13.950;2023-07-29T10:26:41;2.58;;;2.20;;
11247;SDS011;5681;53.316;13.950;2023-07-29T10:29:10;6.45;;;2.45;;
11247;SDS011;5681;53.316;13.950;2023-07-29T10:31:38;3.17;;;2.63;;
11247;SDS011;5681;53.316;13.950;2023-07-29T10:34:07;4.05;;;2.30;;
11247;SDS011;5681;53.316;13.950;2023-07-29T10:36:33;6.63;;;2.60;;
11247;SDS011;5681;53.316;13.950;2023-07-29T10:39:01;4.85;;;2.60;;
11247;SDS011;5681;53.316;13.950;2023-07-29T10:47:18;3.28;;;2.50;;
11247;SDS011;5681;53.316;13.950;2023-07-29T10:49:48;3.70;;;2.50;;
11247;SDS011;5681;53.316;13.950;2023-07-29T10:52:27;3.10;;;2.80;;
11247;SDS011;5681;53.316;13.950;2023-07-29T10:54:55;5.80;;;2.90;;
11247;SDS011;5681;53.316;13.950;2023-07-29T10:57:30;4.03;;;2.55;;
11247;SDS011;5681;53.316;13.950;2023-07-29T10:59:57;3.03;;;2.80;;
11247;SDS011;5681;53.316;13.950;2023-07-29T11:02:28;5.85;;;1.92;;
11247;SDS011;5681;53.316;13.950;2023-07-29T11:04:56;1.60;;;1.30;;
11247;SDS011;5681;53.316;13.950;2023-07-29T11:07:24;1.95;;;1.33;;
11247;SDS011;5681;53.316;13.950;2023-07-29T11:09:56;2.50;;;1.40;;
11247;SDS011;5681;53.316;13.950;2023-07-29T11:12:34;1.60;;;1.23;;
11247;SDS011;5681;53.316;13.950;2023-07-29T11:15:04;6.78;;;1.30;;
11247;SDS011;5681;53.316;13.950;2023-07-29T11:17:38;2.55;;;1.25;;
11247;SDS011;5681;53.316;13.950;2023-07-29T11:20:07;2.17;;;1.00;;
11247;SDS011;5681;53.316;13.950;2023-07-29T11:22:34;2.05;;;0.90;;
11247;SDS011;5681;53.316;13.950;2023-07-29T11:25:01;1.42;;;1.00;;
11247;SDS011;5681;53.316;13.950;2023-07-29T11:27:27;2.17;;;1.10;;
11247;SDS011;5681;53.316;13.950;2023-07-29T11:29:56;8.68;;;1.17;;
11247;SDS011;5681;53.316;13.950;2023-07-29T11:32:23;5.65;;;1.10;;
11247;SDS011;5681;53.316;13.950;2023-07-29T11:34:49;5.25;;;1.75;;
11247;SDS011;5681;53.316;13.950;2023-07-29T11:37:17;2.08;;;1.50;;
11247;SDS011;5681;53.316;13.950;2023-07-29T11:39:45;1.60;;;1.50;;
11247;SDS011;5681;53.316;13.950;2023-07-29T11:42:12;3.13;;;2.00;;
11247;SDS011;5681;53.316;13.950;2023-07-29T11:44:38;2.92;;;1.92;;
11247;SDS011;5681;53.316;13.950;2023-07-29T11:47:06;2.28;;;1.75;;
11247;SDS011;5681;53.316;13.950;2023-07-29T11:49:32;4.07;;;2.25;;
11247;SDS011;5681;53.316;13.950;2023-07-29T11:51:59;7.80;;;2.17;;
11247;SDS011;5681;53.316;13.950;2023-07-29T11:54:27;3.00;;;2.35;;
11247;SDS011;5681;53.316;13.950;2023-07-29T11:56:53;4.53;;;2.20;;
11247;SDS011;5681;53.316;13.950;2023-07-29T11:59:20;4.10;;;2.80;;
11247;SDS011;5681;53.316;13.950;2023-07-29T12:01:46;4.88;;;2.45;;
11247;SDS011;5681;53.316;13.950;2023-07-29T12:04:13;6.00;;;2.90;;
11247;SDS011;5681;53.316;13.950;2023-07-29T12:06:39;6.32;;;2.63;;
11247;SDS011;5681;53.316;13.950;2023-07-29T12:09:06;7.45;;;3.10;;
11247;SDS011;5681;53.316;13.950;2023-07-29T12:11:35;12.60;;;3.67;;
11247;SDS011;5681;53.316;13.950;2023-07-29T12:14:01;7.10;;;3.40;;
11247;SDS011;5681;53.316;13.950;2023-07-29T12:16:28;7.18;;;3.25;;
11247;SDS011;5681;53.316;13.950;2023-07-29T12:18:59;9.88;;;3.38;;
11247;SDS011;5681;53.316;13.950;2023-07-29T12:21:26;5.70;;;2.60;;
11247;SDS011;5681;53.316;13.950;2023-07-29T12:23:52;3.92;;;2.30;;
11247;SDS011;5681;53.316;13.950;2023-07-29T12:26:19;3.80;;;1.98;;
11247;SDS011;5681;53.316;13.950;2023-07-29T12:28:47;3.65;;;2.20;;
11247;SDS011;5681;53.316;13.950;2023-07-29T12:31:13;3.25;;;1.90;;
11247;SDS011;5681;53.316;13.950;2023-07-29T12:33:39;5.53;;;1.90;;
11247;SDS011;5681;53.316;13.950;2023-07-29T12:36:07;4.88;;;1.92;;
11247;SDS011;5681;53.316;13.950;2023-07-29T12:38:35;4.32;;;1.75;;
11247;SDS011;5681;53.316;13.950;2023-07-29T12:41:01;2.20;;;1.42;;
11247;SDS011;5681;53.316;13.950;2023-07-29T12:43:28;3.55;;;2.00;;
11247;SDS011;5681;53.316;13.950;2023-07-29T12:45:56;9.00;;;1.88;;
11247;SDS011;5681;53.316;13.950;2023-07-29T12:48:24;3.80;;;1.60;;
11247;SDS011;5681;53.316;13.950;2023-07-29T12:50:50;3.00;;;1.77;;
11247;SDS011;5681;53.316;13.950;2023-07-29T12:53:17;5.20;;;2.00;;
11247;SDS011;5681;53.316;13.950;2023-07-29T12:55:43;5.88;;;1.80;;
11247;SDS011;5681;53.316;13.950;2023-07-29T12:58:09;3.92;;;1.83;;
11247;SDS011;5681;53.316;13.950;2023-07-29T13:00:36;2.88;;;1.80;;
11247;SDS011;5681;53.316;13.950;2023-07-29T13:03:04;4.85;;;1.75;;
11247;SDS011;5681;53.316;13.950;2023-07-29T13:05:31;3.17;;;1.70;;
11247;SDS011;5681;53.316;13.950;2023-07-29T13:07:57;2.78;;;1.70;;
11247;SDS011;5681;53.316;13.950;2023-07-29T13:10:24;3.17;;;1.88;;
11247;SDS011;5681;53.316;13.950;2023-07-29T13:12:50;1.70;;;1.45;;
11247;SDS011;5681;53.316;13.950;2023-07-29T13:15:16;2.10;;;1.50;;
11247;SDS011;5681;53.316;13.950;2023-07-29T13:17:43;2.83;;;1.60;;
11247;SDS011;5681;53.316;13.950;2023-07-29T13:20:10;2.75;;;1.70;;
11247;SDS011;5681;53.316;13.950;2023-07-29T13:22:37;3.10;;;1.42;;
11247;SDS011;5681;53.316;13.950;2023-07-29T13:25:03;1.80;;;1.50;;
11247;SDS011;5681;53.316;13.950;2023-07-29T13:27:30;2.25;;;1.50;;
11247;SDS011;5681;53.316;13.950;2023-07-29T13:29:56;1.70;;;1.40;;
11247;SDS011;5681;53.316;13.950;2023-07-29T13:32:22;2.30;;;1.48;;
11247;SDS011;5681;53.316;13.950;2023-07-29T13:34:49;1.92;;;1.40;;
11247;SDS011;5681;53.316;13.950;2023-07-29T13:37:17;2.38;;;1.33;;
11247;SDS011;5681;53.316;13.950;2023-07-29T13:39:43;7.28;;;1.55;;
11247;SDS011;5681;53.316;13.950;2023-07-29T13:42:09;1.50;;;1.40;;
11247;SDS011;5681;53.316;13.950;2023-07-29T13:44:35;3.85;;;1.45;;
11247;SDS011;5681;53.316;13.950;2023-07-29T13:47:02;2.75;;;1.52;;
11247;SDS011;5681;53.316;13.950;2023-07-29T13:49:28;6.05;;;1.42;;
11247;SDS011;5681;53.316;13.950;2023-07-29T13:51:55;1.95;;;1.23;;
11247;SDS011;5681;53.316;13.950;2023-07-29T13:54:22;1.73;;;1.30;;
11247;SDS011;5681;53.316;13.950;2023-07-29T13:56:49;1.63;;;1.30;;
11247;SDS011;5681;53.316;13.950;2023-07-29T13:59:15;1.88;;;1.50;;
11247;SDS011;5681;53.316;13.950;2023-07-29T14:01:42;1.83;;;1.30;;
11247;SDS011;5681;53.316;13.950;2023-07-29T14:04:08;1.48;;;1.20;;
11247;SDS011;5681;53.316;13.950;2023-07-29T14:06:34;3.35;;;1.50;;
11247;SDS011;5681;53.316;13.950;2023-07-29T14:09:01;2.17;;;1.58;;
11247;SDS011;5681;53.316;13.950;2023-07-29T14:11:29;1.40;;;1.20;;
11247;SDS011;5681;53.316;13.950;2023-07-29T14:13:55;1.80;;;1.33;;
11247;SDS011;5681;53.316;13.950;2023-07-29T14:16:22;2.15;;;1.35;;
11247;SDS011;5681;53.316;13.950;2023-07-29T14:18:48;2.35;;;1.60;;
11247;SDS011;5681;53.316;13.950;2023-07-29T14:21:14;3.25;;;1.52;;
11247;SDS011;5681;53.316;13.950;2023-07-29T14:23:41;2.38;;;1.65;;
11247;SDS011;5681;53.316;13.950;2023-07-29T14:26:07;2.90;;;1.60;;
11247;SDS011;5681;53.316;13.950;2023-07-29T14:28:36;1.95;;;1.50;;
11247;SDS011;5681;53.316;13.950;2023-07-29T14:31:02;2.33;;;1.60;;
11247;SDS011;5681;53.316;13.950;2023-07-29T14:33:28;2.05;;;1.75;;
11247;SDS011;5681;53.316;13.950;2023-07-29T14:35:55;1.88;;;1.70;;
11247;SDS011;5681;53.316;13.950;2023-07-29T14:38:21;2.38;;;1.60;;
11247;SDS011;5681;53.316;13.950;2023-07-29T14:40:47;1.83;;;1.63;;
11247;SDS011;5681;53.316;13.950;2023-07-29T14:43:15;5.53;;;1.73;;
11247;SDS011;5681;53.316;13.950;2023-07-29T14:45:43;3.90;;;1.60;;
11247;SDS011;5681;53.316;13.950;2023-07-29T14:48:09;1.70;;;1.60;;
11247;SDS011;5681;53.316;13.950;2023-07-29T14:50:36;1.95;;;1.52;;
11247;SDS011;5681;53.316;13.950;2023-07-29T14:53:02;2.38;;;1.42;;